sensor_id;sensor_type;location;lat;lon;timestamp;P1;durP1;ratioP1;P2;durP2;ratioP2
19016;SDS011;9641;51.494;6.670;2023-06-01T00:01:40;15.03;;;6.60;;
19016;SDS011;9641;51.494;6.670;2023-06-01T00:04:10;12.37;;;6.00;;
19016;SDS011;9641;51.494;6.670;2023-06-01T00:06:38;11.00;;;6.30;;
19016;SDS011;9641;51.494;6.670;2023-06-01T00:09:06;9.97;;;5.97;;
19016;SDS011;9641;51.494;6.670;2023-06-01T00:11:33;9.53;;;6.80;;
19016;SDS011;9641;51.494;6.670;2023-06-01T00:14:03;13.87;;;6.20;;
19016;SDS011;9641;51.494;6.670;2023-06-01T00:16:31;12.80;;;6.27;;
19016;SDS011;9641;51.494;6.670;2023-06-01T00:18:58;11.67;;;6.63;;
19016;SDS011;9641;51.494;6.670;2023-06-01T00:21:27;13.63;;;6.90;;
19016;SDS011;9641;51.494;6.670;2023-06-01T00:23:56;15.57;;;7.13;;
19016;SDS011;9641;51.494;6.670;2023-06-01T00:26:26;13.13;;;7.03;;
19016;SDS011;9641;51.494;6.670;2023-06-01T00:28:55;15.73;;;7.70;;
19016;SDS011;9641;51.494;6.670;2023-06-01T00:31:25;13.07;;;7.70;;
19016;SDS011;9641;51.494;6.670;2023-06-01T00:33:53;13.37;;;7.83;;
19016;SDS011;9641;51.494;6.670;2023-06-01T00:36:22;17.90;;;7.63;;
19016;SDS011;9641;51.494;6.670;2023-06-01T00:38:53;16.73;;;7.63;;
19016;SDS011;9641;51.494;6.670;2023-06-01T00:41:27;12.33;;;7.50;;
19016;SDS011;9641;51.494;6.670;2023-06-01T00:43:54;14.57;;;7.77;;
19016;SDS011;9641;51.494;6.670;2023-06-01T00:46:22;15.03;;;8.07;;
19016;SDS011;9641;51.494;6.670;2023-06-01T00:48:50;13.57;;;7.70;;
19016;SDS011;9641;51.494;6.670;2023-06-01T00:51:25;16.80;;;8.43;;
19016;SDS011;9641;51.494;6.670;2023-06-01T00:54:01;14.87;;;7.80;;
19016;SDS011;9641;51.494;6.670;2023-06-01T00:56:32;15.93;;;8.23;;
19016;SDS011;9641;51.494;6.670;2023-06-01T00:59:01;13.00;;;7.70;;
19016;SDS011;9641;51.494;6.670;2023-06-01T01:01:28;15.70;;;8.37;;
19016;SDS011;9641;51.494;6.670;2023-06-01T01:03:58;18.43;;;8.83;;
19016;SDS011;9641;51.494;6.670;2023-06-01T01:06:31;15.87;;;8.47;;
19016;SDS011;9641;51.494;6.670;2023-06-01T01:09:20;15.37;;;8.07;;
19016;SDS011;9641;51.494;6.670;2023-06-01T01:11:57;16.67;;;9.03;;
19016;SDS011;9641;51.494;6.670;2023-06-01T01:14:30;19.00;;;9.27;;
19016;SDS011;9641;51.494;6.670;2023-06-01T01:17:06;15.23;;;8.80;;
19016;SDS011;9641;51.494;6.670;2023-06-01T01:22:39;15.33;;;8.80;;
19016;SDS011;9641;51.494;6.670;2023-06-01T01:25:25;14.13;;;8.63;;
19016;SDS011;9641;51.494;6.670;2023-06-01T01:28:07;16.67;;;8.80;;
19016;SDS011;9641;51.494;6.670;2023-06-01T01:30:42;18.00;;;9.60;;
19016;SDS011;9641;51.494;6.670;2023-06-01T01:33:10;20.33;;;9.47;;
19016;SDS011;9641;51.494;6.670;2023-06-01T01:35:39;18.27;;;9.80;;
19016;SDS011;9641;51.494;6.670;2023-06-01T01:38:08;17.67;;;9.70;;
19016;SDS011;9641;51.494;6.670;2023-06-01T01:40:35;21.83;;;10.13;;
19016;SDS011;9641;51.494;6.670;2023-06-01T01:43:03;23.57;;;11.33;;
19016;SDS011;9641;51.494;6.670;2023-06-01T01:45:30;20.67;;;10.40;;
19016;SDS011;9641;51.494;6.670;2023-06-01T01:48:02;21.03;;;10.00;;
19016;SDS011;9641;51.494;6.670;2023-06-01T01:50:41;29.63;;;10.97;;
19016;SDS011;9641;51.494;6.670;2023-06-01T01:53:15;17.07;;;9.77;;
19016;SDS011;9641;51.494;6.670;2023-06-01T01:55:44;17.40;;;10.70;;
19016;SDS011;9641;51.494;6.670;2023-06-01T01:58:14;22.67;;;10.57;;
19016;SDS011;9641;51.494;6.670;2023-06-01T02:00:49;19.27;;;11.57;;
19016;SDS011;9641;51.494;6.670;2023-06-01T02:03:23;19.10;;;10.57;;
19016;SDS011;9641;51.494;6.670;2023-06-01T02:05:51;23.33;;;11.77;;
19016;SDS011;9641;51.494;6.670;2023-06-01T02:08:19;19.80;;;11.17;;
19016;SDS011;9641;51.494;6.670;2023-06-01T02:10:47;25.73;;;11.80;;
19016;SDS011;9641;51.494;6.670;2023-06-01T02:13:15;19.90;;;10.67;;
19016;SDS011;9641;51.494;6.670;2023-06-01T02:15:42;22.97;;;11.10;;
19016;SDS011;9641;51.494;6.670;2023-06-01T02:18:09;24.00;;;12.03;;
19016;SDS011;9641;51.494;6.670;2023-06-01T02:20:38;23.23;;;12.50;;
19016;SDS011;9641;51.494;6.670;2023-06-01T02:23:05;22.67;;;11.97;;
19016;SDS011;9641;51.494;6.670;2023-06-01T02:25:32;25.10;;;12.93;;
19016;SDS011;9641;51.494;6.670;2023-06-01T02:28:00;25.10;;;13.07;;
19016;SDS011;9641;51.494;6.670;2023-06-01T02:30:27;24.67;;;12.97;;
19016;SDS011;9641;51.494;6.670;2023-06-01T02:32:54;23.57;;;12.73;;
19016;SDS011;9641;51.494;6.670;2023-06-01T02:35:22;25.27;;;11.97;;
19016;SDS011;9641;51.494;6.670;2023-06-01T02:37:53;26.27;;;11.93;;
19016;SDS011;9641;51.494;6.670;2023-06-01T02:40:20;26.03;;;13.87;;
19016;SDS011;9641;51.494;6.670;2023-06-01T02:42:47;33.73;;;14.07;;
19016;SDS011;9641;51.494;6.670;2023-06-01T02:45:14;28.87;;;15.33;;
19016;SDS011;9641;51.494;6.670;2023-06-01T02:47:41;30.13;;;14.37;;
19016;SDS011;9641;51.494;6.670;2023-06-01T02:50:10;29.60;;;15.30;;
19016;SDS011;9641;51.494;6.670;2023-06-01T02:52:41;29.90;;;16.47;;
19016;SDS011;9641;51.494;6.670;2023-06-01T02:55:10;25.50;;;14.57;;
19016;SDS011;9641;51.494;6.670;2023-06-01T02:58:01;35.33;;;16.73;;
19016;SDS011;9641;51.494;6.670;2023-06-01T03:00:35;26.53;;;14.50;;
19016;SDS011;9641;51.494;6.670;2023-06-01T03:03:07;27.87;;;15.03;;
19016;SDS011;9641;51.494;6.670;2023-06-01T03:05:34;27.97;;;14.53;;
19016;SDS011;9641;51.494;6.670;2023-06-01T03:08:27;24.07;;;13.43;;
19016;SDS011;9641;51.494;6.670;2023-06-01T03:10:58;27.70;;;15.33;;
19016;SDS011;9641;51.494;6.670;2023-06-01T03:13:31;24.33;;;13.80;;
19016;SDS011;9641;51.494;6.670;2023-06-01T03:15:58;25.70;;;13.30;;
19016;SDS011;9641;51.494;6.670;2023-06-01T03:18:26;27.03;;;14.00;;
19016;SDS011;9641;51.494;6.670;2023-06-01T03:20:58;25.30;;;13.90;;
19016;SDS011;9641;51.494;6.670;2023-06-01T03:23:28;30.37;;;14.53;;
19016;SDS011;9641;51.494;6.670;2023-06-01T03:26:00;27.50;;;15.27;;
19016;SDS011;9641;51.494;6.670;2023-06-01T03:28:31;25.07;;;13.97;;
19016;SDS011;9641;51.494;6.670;2023-06-01T03:30:58;23.17;;;13.93;;
19016;SDS011;9641;51.494;6.670;2023-06-01T03:33:25;27.67;;;14.40;;
19016;SDS011;9641;51.494;6.670;2023-06-01T03:35:53;29.93;;;14.50;;
19016;SDS011;9641;51.494;6.670;2023-06-01T03:38:21;30.40;;;14.53;;
19016;SDS011;9641;51.494;6.670;2023-06-01T03:40:48;29.90;;;14.90;;
19016;SDS011;9641;51.494;6.670;2023-06-01T03:43:17;27.53;;;14.47;;
19016;SDS011;9641;51.494;6.670;2023-06-01T03:45:48;28.30;;;13.63;;
19016;SDS011;9641;51.494;6.670;2023-06-01T03:48:15;27.20;;;13.70;;
19016;SDS011;9641;51.494;6.670;2023-06-01T03:50:42;26.17;;;14.80;;
19016;SDS011;9641;51.494;6.670;2023-06-01T03:53:09;24.27;;;13.77;;
19016;SDS011;9641;51.494;6.670;2023-06-01T03:55:36;29.93;;;13.70;;
19016;SDS011;9641;51.494;6.670;2023-06-01T03:58:19;24.00;;;13.30;;
19016;SDS011;9641;51.494;6.670;2023-06-01T04:00:46;23.40;;;12.20;;
19016;SDS011;9641;51.494;6.670;2023-06-01T04:03:14;20.77;;;12.87;;
19016;SDS011;9641;51.494;6.670;2023-06-01T04:05:46;23.93;;;12.03;;
19016;SDS011;9641;51.494;6.670;2023-06-01T04:08:18;23.10;;;12.00;;
19016;SDS011;9641;51.494;6.670;2023-06-01T04:10:46;24.20;;;12.20;;
19016;SDS011;9641;51.494;6.670;2023-06-01T04:13:25;23.50;;;11.97;;
19016;SDS011;9641;51.494;6.670;2023-06-01T04:15:52;27.10;;;12.53;;
19016;SDS011;9641;51.494;6.670;2023-06-01T04:18:20;19.80;;;12.13;;
19016;SDS011;9641;51.494;6.670;2023-06-01T04:20:54;19.03;;;10.77;;
19016;SDS011;9641;51.494;6.670;2023-06-01T04:23:24;21.00;;;11.33;;
19016;SDS011;9641;51.494;6.670;2023-06-01T04:25:51;20.03;;;11.23;;
19016;SDS011;9641;51.494;6.670;2023-06-01T04:28:45;21.47;;;11.17;;
19016;SDS011;9641;51.494;6.670;2023-06-01T04:31:15;23.43;;;11.07;;
19016;SDS011;9641;51.494;6.670;2023-06-01T04:33:45;22.57;;;12.07;;
19016;SDS011;9641;51.494;6.670;2023-06-01T04:36:19;21.67;;;11.47;;
19016;SDS011;9641;51.494;6.670;2023-06-01T04:38:50;25.23;;;11.07;;
19016;SDS011;9641;51.494;6.670;2023-06-01T04:41:19;16.80;;;11.13;;
19016;SDS011;9641;51.494;6.670;2023-06-01T04:43:49;19.53;;;11.40;;
19016;SDS011;9641;51.494;6.670;2023-06-01T04:46:18;19.47;;;11.03;;
19016;SDS011;9641;51.494;6.670;2023-06-01T04:48:46;20.23;;;11.67;;
19016;SDS011;9641;51.494;6.670;2023-06-01T04:51:17;20.37;;;11.57;;
19016;SDS011;9641;51.494;6.670;2023-06-01T04:53:45;18.47;;;10.40;;
19016;SDS011;9641;51.494;6.670;2023-06-01T04:56:16;17.47;;;10.47;;
19016;SDS011;9641;51.494;6.670;2023-06-01T04:58:51;23.10;;;11.63;;
19016;SDS011;9641;51.494;6.670;2023-06-01T05:01:20;20.20;;;10.50;;
19016;SDS011;9641;51.494;6.670;2023-06-01T05:03:51;18.53;;;10.63;;
19016;SDS011;9641;51.494;6.670;2023-06-01T05:06:20;17.60;;;10.47;;
19016;SDS011;9641;51.494;6.670;2023-06-01T05:08:48;19.53;;;10.67;;
19016;SDS011;9641;51.494;6.670;2023-06-01T05:11:16;18.80;;;10.27;;
19016;SDS011;9641;51.494;6.670;2023-06-01T05:13:47;17.07;;;10.60;;
19016;SDS011;9641;51.494;6.670;2023-06-01T05:16:21;23.80;;;11.90;;
19016;SDS011;9641;51.494;6.670;2023-06-01T05:18:50;18.87;;;11.87;;
19016;SDS011;9641;51.494;6.670;2023-06-01T05:21:22;22.60;;;12.40;;
19016;SDS011;9641;51.494;6.670;2023-06-01T05:23:49;21.37;;;12.30;;
19016;SDS011;9641;51.494;6.670;2023-06-01T05:26:16;18.67;;;10.07;;
19016;SDS011;9641;51.494;6.670;2023-06-01T05:28:49;18.57;;;9.80;;
19016;SDS011;9641;51.494;6.670;2023-06-01T05:31:21;17.37;;;9.53;;
19016;SDS011;9641;51.494;6.670;2023-06-01T05:33:54;20.37;;;10.50;;
19016;SDS011;9641;51.494;6.670;2023-06-01T05:36:23;22.60;;;10.53;;
19016;SDS011;9641;51.494;6.670;2023-06-01T05:38:53;15.87;;;9.83;;
19016;SDS011;9641;51.494;6.670;2023-06-01T05:41:20;20.83;;;10.37;;
19016;SDS011;9641;51.494;6.670;2023-06-01T05:43:48;20.03;;;9.90;;
19016;SDS011;9641;51.494;6.670;2023-06-01T05:46:17;17.03;;;10.70;;
19016;SDS011;9641;51.494;6.670;2023-06-01T05:48:46;24.40;;;11.80;;
19016;SDS011;9641;51.494;6.670;2023-06-01T05:51:14;14.90;;;10.30;;
19016;SDS011;9641;51.494;6.670;2023-06-01T05:53:47;15.97;;;10.63;;
19016;SDS011;9641;51.494;6.670;2023-06-01T05:56:15;17.50;;;10.80;;
19016;SDS011;9641;51.494;6.670;2023-06-01T05:58:43;20.37;;;11.07;;
19016;SDS011;9641;51.494;6.670;2023-06-01T06:01:11;20.07;;;10.33;;
19016;SDS011;9641;51.494;6.670;2023-06-01T06:03:39;18.07;;;10.77;;
19016;SDS011;9641;51.494;6.670;2023-06-01T06:06:08;18.03;;;10.73;;
19016;SDS011;9641;51.494;6.670;2023-06-01T06:08:35;16.30;;;10.37;;
19016;SDS011;9641;51.494;6.670;2023-06-01T06:11:02;21.47;;;10.60;;
19016;SDS011;9641;51.494;6.670;2023-06-01T06:13:29;17.57;;;9.80;;
19016;SDS011;9641;51.494;6.670;2023-06-01T06:15:57;16.67;;;10.20;;
19016;SDS011;9641;51.494;6.670;2023-06-01T06:18:26;19.43;;;10.20;;
19016;SDS011;9641;51.494;6.670;2023-06-01T06:20:54;18.00;;;10.67;;
19016;SDS011;9641;51.494;6.670;2023-06-01T06:23:22;20.83;;;10.30;;
19016;SDS011;9641;51.494;6.670;2023-06-01T06:25:50;19.73;;;10.03;;
19016;SDS011;9641;51.494;6.670;2023-06-01T06:28:17;17.77;;;9.93;;
19016;SDS011;9641;51.494;6.670;2023-06-01T06:30:46;19.23;;;10.00;;
19016;SDS011;9641;51.494;6.670;2023-06-01T06:33:14;18.37;;;10.63;;
19016;SDS011;9641;51.494;6.670;2023-06-01T06:35:42;19.53;;;10.07;;
19016;SDS011;9641;51.494;6.670;2023-06-01T06:38:12;18.90;;;10.00;;
19016;SDS011;9641;51.494;6.670;2023-06-01T06:40:43;19.90;;;10.87;;
19016;SDS011;9641;51.494;6.670;2023-06-01T06:43:10;14.73;;;10.13;;
19016;SDS011;9641;51.494;6.670;2023-06-01T06:45:38;19.43;;;10.43;;
19016;SDS011;9641;51.494;6.670;2023-06-01T06:48:05;19.53;;;10.70;;
19016;SDS011;9641;51.494;6.670;2023-06-01T06:50:32;17.33;;;9.83;;
19016;SDS011;9641;51.494;6.670;2023-06-01T06:53:00;18.90;;;10.43;;
19016;SDS011;9641;51.494;6.670;2023-06-01T06:55:28;15.63;;;10.13;;
19016;SDS011;9641;51.494;6.670;2023-06-01T06:57:56;16.97;;;9.90;;
19016;SDS011;9641;51.494;6.670;2023-06-01T07:00:24;17.23;;;10.17;;
19016;SDS011;9641;51.494;6.670;2023-06-01T07:02:51;17.27;;;9.70;;
19016;SDS011;9641;51.494;6.670;2023-06-01T07:05:19;16.63;;;10.10;;
19016;SDS011;9641;51.494;6.670;2023-06-01T07:07:46;13.57;;;8.63;;
19016;SDS011;9641;51.494;6.670;2023-06-01T07:10:14;15.13;;;9.17;;
19016;SDS011;9641;51.494;6.670;2023-06-01T07:12:44;19.50;;;9.73;;
19016;SDS011;9641;51.494;6.670;2023-06-01T07:15:13;16.83;;;9.83;;
19016;SDS011;9641;51.494;6.670;2023-06-01T07:17:43;20.07;;;9.70;;
19016;SDS011;9641;51.494;6.670;2023-06-01T07:20:11;17.10;;;9.40;;
19016;SDS011;9641;51.494;6.670;2023-06-01T07:22:38;13.80;;;9.73;;
19016;SDS011;9641;51.494;6.670;2023-06-01T07:25:08;15.43;;;9.23;;
19016;SDS011;9641;51.494;6.670;2023-06-01T07:27:35;17.43;;;9.77;;
19016;SDS011;9641;51.494;6.670;2023-06-01T07:30:03;17.10;;;10.10;;
19016;SDS011;9641;51.494;6.670;2023-06-01T07:32:35;18.97;;;9.60;;
19016;SDS011;9641;51.494;6.670;2023-06-01T07:35:03;19.87;;;10.50;;
19016;SDS011;9641;51.494;6.670;2023-06-01T07:37:31;26.87;;;11.63;;
19016;SDS011;9641;51.494;6.670;2023-06-01T07:39:58;21.00;;;11.50;;
19016;SDS011;9641;51.494;6.670;2023-06-01T07:42:26;19.10;;;10.23;;
19016;SDS011;9641;51.494;6.670;2023-06-01T07:44:58;18.73;;;9.77;;
19016;SDS011;9641;51.494;6.670;2023-06-01T07:47:26;19.27;;;10.27;;
19016;SDS011;9641;51.494;6.670;2023-06-01T07:49:55;15.43;;;9.40;;
19016;SDS011;9641;51.494;6.670;2023-06-01T07:52:22;20.57;;;9.40;;
19016;SDS011;9641;51.494;6.670;2023-06-01T07:54:50;18.93;;;9.77;;
19016;SDS011;9641;51.494;6.670;2023-06-01T07:57:17;17.40;;;8.80;;
19016;SDS011;9641;51.494;6.670;2023-06-01T07:59:44;17.00;;;10.13;;
19016;SDS011;9641;51.494;6.670;2023-06-01T08:02:12;17.30;;;9.67;;
19016;SDS011;9641;51.494;6.670;2023-06-01T08:04:39;15.77;;;9.30;;
19016;SDS011;9641;51.494;6.670;2023-06-01T08:07:08;15.40;;;9.03;;
19016;SDS011;9641;51.494;6.670;2023-06-01T08:09:37;19.93;;;9.93;;
19016;SDS011;9641;51.494;6.670;2023-06-01T08:12:05;16.63;;;9.57;;
19016;SDS011;9641;51.494;6.670;2023-06-01T08:14:33;18.57;;;9.43;;
19016;SDS011;9641;51.494;6.670;2023-06-01T08:17:03;16.90;;;9.50;;
19016;SDS011;9641;51.494;6.670;2023-06-01T08:19:32;17.47;;;8.77;;
19016;SDS011;9641;51.494;6.670;2023-06-01T08:22:00;16.73;;;9.30;;
19016;SDS011;9641;51.494;6.670;2023-06-01T08:24:31;20.03;;;9.03;;
19016;SDS011;9641;51.494;6.670;2023-06-01T08:26:59;20.77;;;9.20;;
19016;SDS011;9641;51.494;6.670;2023-06-01T08:29:26;15.90;;;9.17;;
19016;SDS011;9641;51.494;6.670;2023-06-01T08:31:54;11.80;;;8.07;;
19016;SDS011;9641;51.494;6.670;2023-06-01T08:34:24;12.60;;;7.97;;
19016;SDS011;9641;51.494;6.670;2023-06-01T08:36:51;19.07;;;9.03;;
19016;SDS011;9641;51.494;6.670;2023-06-01T08:39:20;16.97;;;8.60;;
19016;SDS011;9641;51.494;6.670;2023-06-01T08:41:58;15.40;;;8.20;;
19016;SDS011;9641;51.494;6.670;2023-06-01T08:44:34;14.40;;;8.33;;
19016;SDS011;9641;51.494;6.670;2023-06-01T08:47:03;20.23;;;8.80;;
19016;SDS011;9641;51.494;6.670;2023-06-01T08:49:31;19.57;;;9.27;;
19016;SDS011;9641;51.494;6.670;2023-06-01T08:52:02;14.03;;;9.17;;
19016;SDS011;9641;51.494;6.670;2023-06-01T08:54:33;15.37;;;8.87;;
19016;SDS011;9641;51.494;6.670;2023-06-01T08:57:03;16.37;;;9.13;;
19016;SDS011;9641;51.494;6.670;2023-06-01T08:59:32;19.67;;;9.33;;
19016;SDS011;9641;51.494;6.670;2023-06-01T09:02:04;15.77;;;8.93;;
19016;SDS011;9641;51.494;6.670;2023-06-01T09:04:32;18.00;;;8.47;;
19016;SDS011;9641;51.494;6.670;2023-06-01T09:07:03;15.07;;;8.50;;
19016;SDS011;9641;51.494;6.670;2023-06-01T09:09:31;16.67;;;9.27;;
19016;SDS011;9641;51.494;6.670;2023-06-01T09:12:22;15.67;;;8.23;;
19016;SDS011;9641;51.494;6.670;2023-06-01T09:14:54;16.60;;;9.37;;
19016;SDS011;9641;51.494;6.670;2023-06-01T09:17:34;16.00;;;8.70;;
19016;SDS011;9641;51.494;6.670;2023-06-01T09:20:02;14.57;;;9.03;;
19016;SDS011;9641;51.494;6.670;2023-06-01T09:22:41;14.53;;;8.67;;
19016;SDS011;9641;51.494;6.670;2023-06-01T09:25:11;15.03;;;7.80;;
19016;SDS011;9641;51.494;6.670;2023-06-01T09:27:45;20.73;;;8.27;;
19016;SDS011;9641;51.494;6.670;2023-06-01T09:30:23;17.57;;;9.23;;
19016;SDS011;9641;51.494;6.670;2023-06-01T09:32:51;14.80;;;8.20;;
19016;SDS011;9641;51.494;6.670;2023-06-01T09:35:41;13.57;;;8.70;;
19016;SDS011;9641;51.494;6.670;2023-06-01T09:38:10;18.63;;;8.93;;
19016;SDS011;9641;51.494;6.670;2023-06-01T09:40:38;15.77;;;8.80;;
19016;SDS011;9641;51.494;6.670;2023-06-01T09:43:19;13.93;;;8.07;;
19016;SDS011;9641;51.494;6.670;2023-06-01T09:48:31;13.53;;;8.03;;
19016;SDS011;9641;51.494;6.670;2023-06-01T09:50:58;12.00;;;7.93;;
19016;SDS011;9641;51.494;6.670;2023-06-01T09:53:28;15.30;;;8.83;;
19016;SDS011;9641;51.494;6.670;2023-06-01T09:56:06;16.73;;;8.23;;
19016;SDS011;9641;51.494;6.670;2023-06-01T09:58:35;12.50;;;8.13;;
19016;SDS011;9641;51.494;6.670;2023-06-01T10:01:04;15.03;;;7.87;;
19016;SDS011;9641;51.494;6.670;2023-06-01T10:03:33;16.03;;;8.80;;
19016;SDS011;9641;51.494;6.670;2023-06-01T10:06:01;17.47;;;8.87;;
19016;SDS011;9641;51.494;6.670;2023-06-01T10:08:29;12.90;;;7.93;;
19016;SDS011;9641;51.494;6.670;2023-06-01T10:10:58;15.30;;;8.57;;
19016;SDS011;9641;51.494;6.670;2023-06-01T10:13:29;16.57;;;8.77;;
19016;SDS011;9641;51.494;6.670;2023-06-01T10:16:02;13.70;;;8.00;;
19016;SDS011;9641;51.494;6.670;2023-06-01T10:18:30;15.83;;;8.83;;
19016;SDS011;9641;51.494;6.670;2023-06-01T10:21:03;17.73;;;7.90;;
19016;SDS011;9641;51.494;6.670;2023-06-01T10:23:32;14.40;;;7.90;;
19016;SDS011;9641;51.494;6.670;2023-06-01T10:26:05;14.23;;;8.47;;
19016;SDS011;9641;51.494;6.670;2023-06-01T10:28:37;15.40;;;7.87;;
19016;SDS011;9641;51.494;6.670;2023-06-01T10:34:00;15.97;;;8.10;;
19016;SDS011;9641;51.494;6.670;2023-06-01T10:39:39;16.70;;;8.23;;
19016;SDS011;9641;51.494;6.670;2023-06-01T10:45:10;14.17;;;8.60;;
19016;SDS011;9641;51.494;6.670;2023-06-01T10:48:07;17.47;;;8.30;;
19016;SDS011;9641;51.494;6.670;2023-06-01T10:50:35;16.37;;;9.50;;
19016;SDS011;9641;51.494;6.670;2023-06-01T10:58:47;122.80;;;40.00;;
19016;SDS011;9641;51.494;6.670;2023-06-01T11:01:38;21.83;;;11.57;;
19016;SDS011;9641;51.494;6.670;2023-06-01T11:04:07;25.07;;;13.80;;
19016;SDS011;9641;51.494;6.670;2023-06-01T11:06:38;14.73;;;9.10;;
19016;SDS011;9641;51.494;6.670;2023-06-01T11:09:07;18.30;;;9.87;;
19016;SDS011;9641;51.494;6.670;2023-06-01T11:11:59;17.60;;;8.80;;
19016;SDS011;9641;51.494;6.670;2023-06-01T11:14:28;19.60;;;9.35;;
19016;SDS011;9641;51.494;6.670;2023-06-01T11:20:00;13.45;;;8.23;;
19016;SDS011;9641;51.494;6.670;2023-06-01T11:22:36;14.15;;;8.60;;
19016;SDS011;9641;51.494;6.670;2023-06-01T11:25:05;13.57;;;6.80;;
19016;SDS011;9641;51.494;6.670;2023-06-01T11:27:35;13.02;;;7.40;;
19016;SDS011;9641;51.494;6.670;2023-06-01T11:30:03;14.68;;;8.32;;
19016;SDS011;9641;51.494;6.670;2023-06-01T11:32:31;13.77;;;7.82;;
19016;SDS011;9641;51.494;6.670;2023-06-01T11:37:52;10.82;;;6.82;;
19016;SDS011;9641;51.494;6.670;2023-06-01T11:43:28;11.88;;;6.60;;
19016;SDS011;9641;51.494;6.670;2023-06-01T11:45:59;13.85;;;6.47;;
19016;SDS011;9641;51.494;6.670;2023-06-01T11:48:27;10.23;;;6.47;;
19016;SDS011;9641;51.494;6.670;2023-06-01T11:51:08;12.02;;;6.65;;
19016;SDS011;9641;51.494;6.670;2023-06-01T11:53:39;14.85;;;7.22;;
19016;SDS011;9641;51.494;6.670;2023-06-01T11:56:08;17.75;;;7.00;;
19016;SDS011;9641;51.494;6.670;2023-06-01T11:58:36;12.77;;;7.78;;
19016;SDS011;9641;51.494;6.670;2023-06-01T12:01:04;9.88;;;6.57;;
19016;SDS011;9641;51.494;6.670;2023-06-01T12:03:33;8.68;;;5.90;;
19016;SDS011;9641;51.494;6.670;2023-06-01T12:06:21;11.85;;;6.78;;
19016;SDS011;9641;51.494;6.670;2023-06-01T12:08:50;12.35;;;7.75;;
19016;SDS011;9641;51.494;6.670;2023-06-01T12:11:20;11.27;;;7.30;;
19016;SDS011;9641;51.494;6.670;2023-06-01T12:13:51;11.73;;;6.82;;
19016;SDS011;9641;51.494;6.670;2023-06-01T12:16:20;14.65;;;7.15;;
19016;SDS011;9641;51.494;6.670;2023-06-01T12:18:49;11.65;;;6.75;;
19016;SDS011;9641;51.494;6.670;2023-06-01T12:21:16;12.02;;;6.07;;
19016;SDS011;9641;51.494;6.670;2023-06-01T12:23:49;9.40;;;6.70;;
19016;SDS011;9641;51.494;6.670;2023-06-01T12:26:18;9.27;;;6.35;;
19016;SDS011;9641;51.494;6.670;2023-06-01T12:28:46;14.02;;;6.82;;
19016;SDS011;9641;51.494;6.670;2023-06-01T12:31:16;10.85;;;6.35;;
19016;SDS011;9641;51.494;6.670;2023-06-01T12:33:47;12.90;;;6.13;;
19016;SDS011;9641;51.494;6.670;2023-06-01T12:36:27;13.48;;;7.03;;
19016;SDS011;9641;51.494;6.670;2023-06-01T12:38:59;9.55;;;6.28;;
19016;SDS011;9641;51.494;6.670;2023-06-01T12:41:29;10.82;;;6.50;;
19016;SDS011;9641;51.494;6.670;2023-06-01T12:43:57;14.07;;;6.95;;
19016;SDS011;9641;51.494;6.670;2023-06-01T12:46:25;11.43;;;6.25;;
19016;SDS011;9641;51.494;6.670;2023-06-01T12:48:54;8.70;;;6.43;;
19016;SDS011;9641;51.494;6.670;2023-06-01T12:51:37;11.15;;;6.40;;
19016;SDS011;9641;51.494;6.670;2023-06-01T12:54:09;11.55;;;6.55;;
19016;SDS011;9641;51.494;6.670;2023-06-01T12:56:37;10.15;;;6.05;;
19016;SDS011;9641;51.494;6.670;2023-06-01T12:59:04;10.98;;;5.95;;
19016;SDS011;9641;51.494;6.670;2023-06-01T13:01:32;11.05;;;6.30;;
19016;SDS011;9641;51.494;6.670;2023-06-01T13:03:59;11.98;;;6.60;;
19016;SDS011;9641;51.494;6.670;2023-06-01T13:06:28;8.55;;;6.07;;
19016;SDS011;9641;51.494;6.670;2023-06-01T13:08:55;7.80;;;5.38;;
19016;SDS011;9641;51.494;6.670;2023-06-01T13:11:26;9.10;;;6.00;;
19016;SDS011;9641;51.494;6.670;2023-06-01T13:13:58;9.73;;;5.38;;
19016;SDS011;9641;51.494;6.670;2023-06-01T13:16:26;9.63;;;6.63;;
19016;SDS011;9641;51.494;6.670;2023-06-01T13:18:54;11.77;;;6.32;;
19016;SDS011;9641;51.494;6.670;2023-06-01T13:21:23;9.45;;;5.70;;
19016;SDS011;9641;51.494;6.670;2023-06-01T13:23:56;7.38;;;5.93;;
19016;SDS011;9641;51.494;6.670;2023-06-01T13:26:27;9.93;;;5.05;;
19016;SDS011;9641;51.494;6.670;2023-06-01T13:28:58;10.30;;;5.68;;
19016;SDS011;9641;51.494;6.670;2023-06-01T13:31:26;12.70;;;6.47;;
19016;SDS011;9641;51.494;6.670;2023-06-01T13:33:58;8.60;;;5.72;;
19016;SDS011;9641;51.494;6.670;2023-06-01T13:36:29;7.93;;;5.95;;
19016;SDS011;9641;51.494;6.670;2023-06-01T13:39:01;9.60;;;6.10;;
19016;SDS011;9641;51.494;6.670;2023-06-01T13:41:31;10.40;;;6.03;;
19016;SDS011;9641;51.494;6.670;2023-06-01T13:44:02;9.43;;;6.45;;
19016;SDS011;9641;51.494;6.670;2023-06-01T13:46:29;11.20;;;6.57;;
19016;SDS011;9641;51.494;6.670;2023-06-01T13:48:57;12.23;;;6.07;;
19016;SDS011;9641;51.494;6.670;2023-06-01T13:51:25;11.68;;;6.25;;
19016;SDS011;9641;51.494;6.670;2023-06-01T13:53:53;9.27;;;6.45;;
19016;SDS011;9641;51.494;6.670;2023-06-01T13:56:21;8.90;;;6.68;;
19016;SDS011;9641;51.494;6.670;2023-06-01T13:58:50;10.40;;;5.90;;
19016;SDS011;9641;51.494;6.670;2023-06-01T14:01:18;10.82;;;5.30;;
19016;SDS011;9641;51.494;6.670;2023-06-01T14:03:47;9.77;;;6.25;;
19016;SDS011;9641;51.494;6.670;2023-06-01T14:06:14;11.13;;;6.85;;
19016;SDS011;9641;51.494;6.670;2023-06-01T14:08:42;9.88;;;6.13;;
19016;SDS011;9641;51.494;6.670;2023-06-01T14:11:10;10.38;;;6.38;;
19016;SDS011;9641;51.494;6.670;2023-06-01T14:13:38;11.15;;;6.32;;
19016;SDS011;9641;51.494;6.670;2023-06-01T14:16:08;9.95;;;6.50;;
19016;SDS011;9641;51.494;6.670;2023-06-01T14:18:37;9.13;;;6.13;;
19016;SDS011;9641;51.494;6.670;2023-06-01T14:21:05;8.60;;;6.00;;
19016;SDS011;9641;51.494;6.670;2023-06-01T14:23:33;9.10;;;5.45;;
19016;SDS011;9641;51.494;6.670;2023-06-01T14:26:07;8.10;;;6.07;;
19016;SDS011;9641;51.494;6.670;2023-06-01T14:28:35;8.45;;;5.47;;
19016;SDS011;9641;51.494;6.670;2023-06-01T14:31:10;11.32;;;6.00;;
19016;SDS011;9641;51.494;6.670;2023-06-01T14:33:38;7.70;;;5.53;;
19016;SDS011;9641;51.494;6.670;2023-06-01T14:36:06;7.78;;;5.50;;
19016;SDS011;9641;51.494;6.670;2023-06-01T14:38:37;12.75;;;6.72;;
19016;SDS011;9641;51.494;6.670;2023-06-01T14:41:04;7.60;;;5.65;;
19016;SDS011;9641;51.494;6.670;2023-06-01T14:43:31;10.65;;;5.88;;
19016;SDS011;9641;51.494;6.670;2023-06-01T14:45:59;10.88;;;6.10;;
19016;SDS011;9641;51.494;6.670;2023-06-01T14:48:28;8.70;;;5.88;;
19016;SDS011;9641;51.494;6.670;2023-06-01T14:50:55;7.85;;;5.88;;
19016;SDS011;9641;51.494;6.670;2023-06-01T14:53:25;10.73;;;5.57;;
19016;SDS011;9641;51.494;6.670;2023-06-01T14:55:53;11.27;;;5.50;;
19016;SDS011;9641;51.494;6.670;2023-06-01T14:58:21;9.60;;;5.35;;
19016;SDS011;9641;51.494;6.670;2023-06-01T15:00:48;7.70;;;5.05;;
19016;SDS011;9641;51.494;6.670;2023-06-01T15:03:16;9.00;;;5.90;;
19016;SDS011;9641;51.494;6.670;2023-06-01T15:05:45;8.88;;;5.38;;
19016;SDS011;9641;51.494;6.670;2023-06-01T15:08:12;6.80;;;5.00;;
19016;SDS011;9641;51.494;6.670;2023-06-01T15:10:40;9.05;;;5.32;;
19016;SDS011;9641;51.494;6.670;2023-06-01T15:13:07;7.97;;;5.05;;
19016;SDS011;9641;51.494;6.670;2023-06-01T15:15:38;8.85;;;4.57;;
19016;SDS011;9641;51.494;6.670;2023-06-01T15:18:09;8.52;;;4.85;;
19016;SDS011;9641;51.494;6.670;2023-06-01T15:20:36;6.45;;;4.30;;
19016;SDS011;9641;51.494;6.670;2023-06-01T15:23:05;6.82;;;4.47;;
19016;SDS011;9641;51.494;6.670;2023-06-01T15:25:32;11.18;;;4.75;;
19016;SDS011;9641;51.494;6.670;2023-06-01T15:27:59;7.43;;;4.38;;
19016;SDS011;9641;51.494;6.670;2023-06-01T15:30:27;7.50;;;4.90;;
19016;SDS011;9641;51.494;6.670;2023-06-01T15:32:58;7.00;;;5.15;;